createdAt,value
2023-02-01T00:00:27.198Z,49.36
2023-02-01T00:03:30.179Z,49.29
2023-02-01T00:06:33.135Z,49.35
2023-02-01T00:09:35.967Z,49.38
2023-02-01T00:12:40.308Z,49.21
2023-02-01T00:15:43.171Z,49.36
2023-02-01T00:18:46.619Z,49.19
2023-02-01T00:21:49.846Z,49.12
2023-02-01T00:24:52.730Z,49.04
2023-02-01T00:27:58.421Z,49.04
2023-02-01T00:31:02.021Z,49.06
2023-02-01T00:34:05.282Z,49.22
2023-02-01T00:37:08.238Z,49.21
2023-02-01T00:40:12.369Z,49.18
2023-02-01T00:43:16.525Z,49.09
2023-02-01T00:46:21.215Z,49.14
2023-02-01T00:49:24.067Z,49.13
2023-02-01T00:52:26.962Z,49.13
2023-02-01T00:55:29.854Z,49.25
2023-02-01T00:58:34.759Z,49.24
2023-02-01T01:01:37.629Z,49.07
2023-02-01T01:04:40.479Z,49.08
2023-02-01T01:07:43.491Z,48.94
2023-02-01T01:10:46.322Z,48.91
2023-02-01T01:13:52.042Z,48.83
2023-02-01T01:16:55.526Z,48.90
2023-02-01T01:19:59.921Z,48.94
2023-02-01T01:23:02.999Z,48.71
2023-02-01T01:26:08.221Z,48.84
2023-02-01T01:29:12.658Z,48.73
2023-02-01T01:32:15.537Z,48.75
2023-02-01T01:35:18.555Z,48.74
2023-02-01T01:38:21.756Z,48.69
2023-02-01T01:41:26.666Z,48.69
2023-02-01T01:45:04.711Z,48.63
2023-02-01T01:48:15.455Z,48.58
2023-02-01T01:51:21.596Z,48.52
2023-02-01T01:54:29.486Z,48.49
2023-02-01T01:57:36.877Z,48.53
2023-02-01T02:00:41.925Z,48.74
2023-02-01T02:03:48.725Z,48.59
2023-02-01T02:06:56.557Z,48.59
2023-02-01T02:10:01.245Z,48.64
2023-02-01T02:13:04.726Z,48.54
2023-02-01T02:16:40.972Z,48.39
2023-02-01T02:20:21.103Z,48.39
2023-02-01T02:24:11.536Z,48.55
2023-02-01T02:27:26.474Z,48.41
2023-02-01T02:30:57.952Z,48.37
2023-02-01T02:34:12.051Z,48.46
2023-02-01T02:37:26.247Z,48.32
2023-02-01T02:40:35.591Z,48.37
2023-02-01T02:44:03.715Z,48.37
2023-02-01T02:47:28.660Z,48.23
2023-02-01T02:50:57.265Z,48.36
2023-02-01T02:54:26.011Z,48.29
2023-02-01T02:57:50.977Z,48.28
2023-02-01T03:01:13.103Z,48.34
2023-02-01T03:04:18.630Z,48.42
2023-02-01T03:07:55.032Z,48.34
2023-02-01T03:11:02.290Z,48.35
2023-02-01T03:14:07.496Z,48.30
2023-02-01T03:17:15.567Z,48.30
2023-02-01T03:20:21.918Z,48.19
2023-02-01T03:23:30.971Z,48.33
2023-02-01T03:26:39.223Z,48.38
2023-02-01T03:29:50.311Z,48.19
2023-02-01T03:33:02.094Z,48.39
2023-02-01T03:36:17.092Z,48.38
2023-02-01T03:39:30.210Z,48.29
2023-02-01T03:42:39.411Z,48.38
2023-02-01T03:45:48.406Z,48.41
2023-02-01T03:48:53.514Z,48.39
2023-02-01T03:51:59.681Z,48.29
2023-02-01T03:55:05.511Z,48.31
2023-02-01T03:58:13.799Z,48.34
2023-02-01T04:01:16.647Z,48.35
2023-02-01T04:04:21.760Z,48.25
2023-02-01T04:07:28.621Z,48.26
2023-02-01T04:10:33.098Z,48.29
2023-02-01T04:13:35.935Z,48.27
2023-02-01T04:16:38.896Z,48.34
2023-02-01T04:19:41.840Z,48.29
2023-02-01T04:22:45.224Z,48.29
2023-02-01T04:25:49.423Z,48.21
2023-02-01T04:28:53.646Z,48.22
2023-02-01T04:31:56.543Z,48.22
2023-02-01T04:34:59.399Z,48.08
2023-02-01T04:38:02.501Z,48.26
2023-02-01T04:41:06.846Z,48.00
2023-02-01T04:44:15.043Z,48.02
2023-02-01T04:47:17.922Z,47.98
2023-02-01T04:50:21.771Z,48.04
2023-02-01T04:53:25.327Z,48.07
2023-02-01T04:56:29.563Z,48.14
2023-02-01T04:59:32.375Z,48.32
2023-02-01T05:02:35.999Z,48.27
2023-02-01T05:05:38.817Z,48.16
2023-02-01T05:08:41.688Z,48.32
2023-02-01T05:12:03.089Z,48.32
2023-02-01T05:15:07.095Z,48.08
2023-02-01T05:18:10.051Z,48.12
2023-02-01T05:21:13.030Z,48.09
2023-02-01T05:24:20.654Z,48.12
2023-02-01T05:27:24.919Z,48.08
2023-02-01T05:30:27.885Z,48.18
2023-02-01T05:33:30.750Z,48.12
2023-02-01T05:36:34.229Z,48.10
2023-02-01T05:39:37.184Z,48.09
2023-02-01T05:42:41.373Z,48.11
2023-02-01T05:45:44.203Z,48.03
2023-02-01T05:48:47.066Z,48.13
2023-02-01T05:51:49.886Z,48.07
2023-02-01T05:54:53.663Z,48.03
2023-02-01T05:57:57.955Z,47.95
2023-02-01T06:01:01.415Z,47.95
2023-02-01T06:04:04.446Z,47.96
2023-02-01T06:07:08.002Z,48.00
2023-02-01T06:10:12.354Z,47.96
2023-02-01T06:13:16.575Z,47.90
2023-02-01T06:16:19.566Z,47.99
2023-02-01T06:19:22.627Z,47.97
2023-02-01T06:22:25.555Z,48.03
2023-02-01T06:25:28.429Z,47.87
2023-02-01T06:28:34.126Z,47.93
2023-02-01T06:31:37.007Z,47.93
2023-02-01T06:34:40.607Z,47.91
2023-02-01T06:37:43.918Z,47.94
2023-02-01T06:40:46.741Z,47.94
2023-02-01T06:43:51.362Z,47.92
2023-02-01T06:46:54.350Z,47.95
2023-02-01T06:49:57.290Z,47.94
2023-02-01T06:53:00.100Z,47.96
2023-02-01T06:56:05.111Z,47.86
2023-02-01T06:59:10.134Z,47.83
2023-02-01T07:02:13.598Z,47.87
2023-02-01T07:05:16.770Z,47.90
2023-02-01T07:08:19.655Z,47.89
2023-02-01T07:11:22.539Z,47.91
2023-02-01T07:14:26.774Z,47.92
2023-02-01T07:17:30.233Z,47.89
2023-02-01T07:20:33.121Z,47.81
2023-02-01T07:23:36.707Z,47.95
2023-02-01T07:26:39.677Z,47.87
2023-02-01T07:29:43.862Z,47.78
2023-02-01T07:32:46.792Z,47.89
2023-02-01T07:35:50.244Z,47.89
2023-02-01T07:38:56.401Z,47.91
2023-02-01T07:41:59.609Z,47.95
2023-02-01T07:45:19.029Z,47.83
2023-02-01T07:48:24.787Z,48.00
2023-02-01T07:51:27.710Z,47.88
2023-02-01T07:54:30.639Z,48.00
2023-02-01T07:57:33.580Z,47.96
2023-02-01T08:00:55.610Z,47.92
2023-02-01T08:04:00.894Z,47.91
2023-02-01T08:07:03.786Z,48.05
2023-02-01T08:10:11.620Z,47.93
2023-02-01T08:13:14.593Z,47.96
2023-02-01T08:16:21.228Z,48.03
2023-02-01T08:19:24.155Z,48.28
2023-02-01T08:22:27.228Z,48.51
2023-02-01T08:25:30.895Z,48.39
2023-02-01T08:28:34.273Z,48.58
2023-02-01T08:31:41.561Z,48.59
2023-02-01T08:34:45.612Z,48.78
2023-02-01T08:37:48.615Z,48.73
2023-02-01T08:40:52.176Z,48.74
2023-02-01T08:43:55.596Z,48.88
2023-02-01T08:46:59.855Z,49.14
2023-02-01T08:50:03.092Z,49.24
2023-02-01T08:53:06.159Z,49.19
2023-02-01T08:56:09.843Z,49.16
2023-02-01T08:59:12.762Z,49.31
2023-02-01T09:02:18.489Z,49.15
2023-02-01T09:05:23.334Z,49.21
2023-02-01T09:08:26.325Z,49.31
2023-02-01T09:11:29.179Z,49.16
2023-02-01T09:14:32.298Z,49.06
2023-02-01T09:17:37.355Z,49.08
2023-02-01T09:20:40.223Z,49.04
2023-02-01T09:23:43.128Z,48.96
2023-02-01T09:26:46.592Z,49.05
2023-02-01T09:29:53.264Z,49.11
2023-02-01T09:32:57.538Z,49.07
2023-02-01T09:36:01.442Z,49.05
2023-02-01T09:39:04.585Z,48.99
2023-02-01T09:42:23.023Z,49.05
2023-02-01T09:45:30.318Z,49.13
2023-02-01T09:48:40.467Z,48.95
2023-02-01T09:51:46.348Z,48.99
2023-02-01T09:54:58.372Z,49.06
2023-02-01T09:58:04.557Z,49.00
2023-02-01T10:01:17.199Z,48.95
2023-02-01T10:04:21.834Z,48.92
2023-02-01T10:07:34.897Z,48.87
2023-02-01T10:10:46.002Z,48.91
2023-02-01T10:13:57.823Z,48.86
2023-02-01T10:17:12.990Z,48.80
2023-02-01T10:20:27.959Z,48.97
2023-02-01T10:24:06.020Z,49.00
2023-02-01T10:27:22.417Z,48.95
2023-02-01T10:30:27.910Z,48.94
2023-02-01T10:33:35.942Z,49.01
2023-02-01T10:36:43.924Z,48.91
2023-02-01T10:39:48.515Z,48.81
2023-02-01T10:42:53.415Z,48.75
2023-02-01T10:45:56.389Z,49.15
2023-02-01T10:49:02.213Z,48.82
2023-02-01T10:52:15.158Z,48.87
2023-02-01T10:55:35.303Z,48.89
2023-02-01T10:58:44.952Z,48.87
2023-02-01T11:01:49.628Z,48.96
2023-02-01T11:04:52.662Z,48.86
2023-02-01T11:07:57.896Z,48.87
2023-02-01T11:11:03.259Z,49.02
2023-02-01T11:14:20.101Z,48.85
2023-02-01T11:17:34.611Z,48.88
2023-02-01T11:20:41.447Z,48.92
2023-02-01T11:23:47.382Z,48.77
2023-02-01T11:26:50.459Z,48.94
2023-02-01T11:29:57.240Z,48.39
2023-02-01T11:33:01.849Z,48.27
2023-02-01T11:36:10.642Z,48.50
2023-02-01T11:39:26.698Z,48.58
2023-02-01T11:42:30.689Z,48.42
2023-02-01T11:45:34.889Z,48.41
2023-02-01T11:48:37.881Z,48.38
2023-02-01T11:51:53.211Z,48.52
2023-02-01T11:55:15.132Z,48.36
2023-02-01T11:58:31.302Z,48.47
2023-02-01T12:02:03.440Z,48.52
2023-02-01T12:05:24.407Z,48.42
2023-02-01T12:09:05.039Z,48.35
2023-02-01T12:12:20.188Z,48.55
2023-02-01T12:15:36.607Z,48.52
2023-02-01T12:19:11.768Z,48.70
2023-02-01T12:22:29.390Z,48.61
2023-02-01T12:25:44.791Z,48.62
2023-02-01T12:29:10.798Z,48.62
2023-02-01T12:32:27.365Z,48.73
2023-02-01T12:35:43.968Z,48.58
2023-02-01T12:38:59.567Z,48.57
2023-02-01T12:42:11.175Z,48.68
2023-02-01T12:45:24.924Z,48.64
2023-02-01T12:48:33.520Z,48.59
2023-02-01T12:51:39.570Z,48.70
2023-02-01T12:54:48.067Z,48.85
2023-02-01T12:57:55.133Z,48.92
2023-02-01T13:01:02.559Z,49.00
2023-02-01T13:04:13.046Z,48.94
2023-02-01T13:07:21.547Z,49.14
2023-02-01T13:10:32.754Z,49.14
2023-02-01T13:13:43.538Z,49.14
2023-02-01T13:16:50.883Z,49.02
2023-02-01T13:19:58.434Z,48.95
2023-02-01T13:23:05.524Z,48.99
2023-02-01T13:26:08.755Z,48.87
2023-02-01T13:29:13.513Z,48.80
2023-02-01T13:33:51.075Z,48.97
2023-02-01T13:36:16.666Z,48.96
2023-02-01T13:39:51.269Z,48.91
2023-02-01T13:42:57.498Z,48.98
2023-02-01T13:46:14.325Z,48.95
2023-02-01T13:49:24.222Z,48.90
2023-02-01T13:52:38.868Z,49.11
2023-02-01T13:55:43.933Z,49.01
2023-02-01T13:58:48.795Z,49.12
2023-02-01T14:01:51.777Z,49.15
2023-02-01T14:04:57.508Z,48.95
2023-02-01T14:08:16.481Z,48.94
2023-02-01T14:11:38.216Z,48.87
2023-02-01T14:14:43.130Z,49.06
2023-02-01T14:17:46.046Z,49.07
2023-02-01T14:20:52.153Z,49.00
2023-02-01T14:24:02.183Z,48.96
2023-02-01T14:27:20.041Z,49.07
2023-02-01T14:30:23.224Z,49.19
2023-02-01T14:33:28.991Z,49.18
2023-02-01T14:36:46.105Z,49.13
2023-02-01T14:39:56.844Z,49.24
2023-02-01T14:42:59.707Z,49.25
2023-02-01T14:46:03.139Z,49.22
2023-02-01T14:49:08.261Z,49.16
2023-02-01T14:52:18.089Z,49.22
2023-02-01T14:55:27.063Z,49.16
2023-02-01T14:58:39.243Z,49.25
2023-02-01T15:01:52.088Z,49.35
2023-02-01T15:04:57.685Z,49.21
2023-02-01T15:08:13.968Z,49.25
2023-02-01T15:11:18.070Z,49.44
2023-02-01T15:14:21.025Z,49.27
2023-02-01T15:17:34.658Z,49.33
2023-02-01T15:20:37.549Z,49.33
2023-02-01T15:23:42.627Z,49.48
2023-02-01T15:26:46.317Z,49.88
2023-02-01T15:29:49.535Z,50.10
2023-02-01T15:32:53.106Z,49.86
2023-02-01T15:35:57.410Z,50.03
2023-02-01T15:39:21.101Z,50.09
2023-02-01T15:42:24.214Z,50.07
2023-02-01T15:45:30.134Z,50.66
2023-02-01T15:48:39.594Z,51.05
2023-02-01T15:51:48.109Z,50.93
2023-02-01T15:54:55.596Z,50.90
2023-02-01T15:57:58.615Z,50.79
2023-02-01T16:01:05.525Z,50.78
2023-02-01T16:04:18.907Z,50.49
2023-02-01T16:07:29.431Z,50.28
2023-02-01T16:10:40.366Z,50.27
2023-02-01T16:13:43.315Z,50.35
2023-02-01T16:16:46.598Z,50.30
2023-02-01T16:19:49.606Z,50.32
2023-02-01T16:22:52.510Z,50.20
2023-02-01T16:25:56.762Z,50.18
2023-02-01T16:28:59.849Z,50.13
2023-02-01T16:32:03.102Z,50.01
2023-02-01T16:35:07.175Z,49.86
2023-02-01T16:38:14.264Z,50.05
2023-02-01T16:41:20.420Z,49.97
2023-02-01T16:44:23.333Z,50.21
2023-02-01T16:47:26.258Z,50.06
2023-02-01T16:50:29.570Z,49.95
2023-02-01T16:53:38.926Z,49.93
2023-02-01T16:56:53.202Z,50.01
2023-02-01T16:59:56.164Z,50.04
2023-02-01T17:02:58.981Z,49.96
2023-02-01T17:06:01.986Z,49.95
2023-02-01T17:09:05.456Z,49.90
2023-02-01T17:12:21.506Z,49.88
2023-02-01T17:15:25.171Z,49.91
2023-02-01T17:18:31.663Z,49.90
2023-02-01T17:21:42.782Z,49.89
2023-02-01T17:24:49.029Z,49.96
2023-02-01T17:27:53.360Z,49.80
2023-02-01T17:30:56.469Z,49.84
2023-02-01T17:33:59.330Z,49.82
2023-02-01T17:37:02.176Z,49.72
2023-02-01T17:40:05.657Z,49.84
2023-02-01T17:43:15.031Z,49.72
2023-02-01T17:46:21.106Z,49.81
2023-02-01T17:49:24.143Z,49.84
2023-02-01T17:52:27.056Z,49.59
2023-02-01T17:55:30.385Z,49.56
2023-02-01T17:58:34.783Z,49.49
2023-02-01T18:01:38.155Z,49.60
2023-02-01T18:04:41.002Z,49.51
2023-02-01T18:07:43.798Z,49.60
2023-02-01T18:10:48.550Z,49.47
2023-02-01T18:13:54.199Z,49.55
2023-02-01T18:16:57.149Z,49.38
2023-02-01T18:20:00.123Z,49.60
2023-02-01T18:23:03.606Z,49.40
2023-02-01T18:26:06.663Z,49.38
2023-02-01T18:29:11.087Z,49.35
2023-02-01T18:32:13.967Z,49.55
2023-02-01T18:35:19.787Z,49.39
2023-02-01T18:38:22.712Z,49.55
2023-02-01T18:41:26.516Z,49.48
2023-02-01T18:44:30.789Z,49.47
2023-02-01T18:47:33.595Z,49.54
2023-02-01T18:50:38.764Z,49.53
2023-02-01T18:53:41.791Z,49.53
2023-02-01T18:56:44.773Z,49.39
2023-02-01T18:59:49.036Z,49.40
2023-02-01T19:02:52.080Z,49.49
2023-02-01T19:05:57.267Z,49.39
2023-02-01T19:09:00.197Z,49.40
2023-02-01T19:12:03.555Z,49.39
2023-02-01T19:15:12.814Z,49.36
2023-02-01T19:18:20.180Z,49.46
2023-02-01T19:21:23.113Z,49.50
2023-02-01T19:24:27.985Z,49.39
2023-02-01T19:27:30.954Z,49.57
2023-02-01T19:30:35.217Z,49.53
2023-02-01T19:33:38.158Z,49.47
2023-02-01T19:36:42.752Z,49.36
2023-02-01T19:39:45.670Z,49.49
2023-02-01T19:42:50.179Z,49.35
2023-02-01T19:45:54.642Z,49.56
2023-02-01T19:48:57.683Z,49.60
2023-02-01T19:52:00.705Z,49.35
2023-02-01T19:55:03.599Z,49.43
2023-02-01T19:58:07.011Z,49.45
2023-02-01T20:01:11.574Z,49.40
2023-02-01T20:04:15.098Z,49.40
2023-02-01T20:07:17.999Z,49.46
2023-02-01T20:10:20.838Z,49.57
2023-02-01T20:13:23.707Z,49.45
2023-02-01T20:16:28.222Z,49.42
2023-02-01T20:19:31.251Z,49.37
2023-02-01T20:22:34.159Z,49.30
2023-02-01T20:25:38.366Z,49.53
2023-02-01T20:28:41.756Z,49.63
2023-02-01T20:31:47.148Z,49.45
2023-02-01T20:34:53.223Z,49.42
2023-02-01T20:37:57.067Z,49.36
2023-02-01T20:41:04.425Z,49.42
2023-02-01T20:44:07.861Z,49.60
2023-02-01T20:47:12.123Z,49.61
2023-02-01T20:50:14.988Z,49.42
2023-02-01T20:53:26.684Z,49.65
2023-02-01T20:56:30.106Z,49.52
2023-02-01T20:59:33.090Z,49.53
2023-02-01T21:02:37.384Z,49.58
2023-02-01T21:05:43.086Z,49.63
2023-02-01T21:08:45.966Z,49.52
2023-02-01T21:11:48.832Z,49.56
2023-02-01T21:14:51.739Z,49.58
2023-02-01T21:17:55.958Z,49.72
2023-02-01T21:21:04.649Z,49.65
2023-02-01T21:24:08.550Z,49.51
2023-02-01T21:27:11.468Z,49.45
2023-02-01T21:30:15.194Z,49.62
2023-02-01T21:33:19.458Z,49.65
2023-02-01T21:36:22.378Z,49.66
2023-02-01T21:39:25.350Z,49.51
2023-02-01T21:42:28.586Z,49.60
2023-02-01T21:45:31.512Z,49.58
2023-02-01T21:49:04.418Z,49.58
2023-02-01T21:51:58.747Z,49.65
2023-02-01T21:55:01.704Z,49.53
2023-02-01T21:58:12.500Z,49.44
2023-02-01T22:01:15.480Z,49.58
2023-02-01T22:04:19.646Z,49.38
2023-02-01T22:07:22.426Z,49.44
2023-02-01T22:10:25.280Z,49.33
2023-02-01T22:13:28.110Z,49.60
2023-02-01T22:16:31.745Z,49.36
2023-02-01T22:19:36.230Z,49.44
2023-02-01T22:22:39.054Z,49.53
2023-02-01T22:25:41.918Z,49.33
2023-02-01T22:28:45.021Z,49.49
2023-02-01T22:31:48.368Z,49.48
2023-02-01T22:34:52.671Z,49.30
2023-02-01T22:37:55.498Z,49.33
2023-02-01T22:40:59.761Z,49.31
2023-02-01T22:44:04.830Z,49.20
2023-02-01T22:47:08.292Z,49.27
2023-02-01T22:50:12.956Z,49.22
2023-02-01T22:53:15.853Z,49.14
2023-02-01T22:56:18.807Z,49.23
2023-02-01T22:59:21.866Z,49.22
2023-02-01T23:02:24.847Z,49.04
2023-02-01T23:05:29.248Z,49.20
2023-02-01T23:08:33.577Z,49.17
2023-02-01T23:11:36.466Z,49.17
2023-02-01T23:14:59.398Z,49.02
2023-02-01T23:18:02.619Z,49.13
2023-02-01T23:21:09.514Z,48.98
2023-02-01T23:24:12.446Z,49.00
2023-02-01T23:27:15.298Z,48.92
2023-02-01T23:30:18.319Z,49.02
2023-02-01T23:33:23.681Z,48.92
2023-02-01T23:36:29.373Z,48.90
2023-02-01T23:39:33.162Z,48.84
2023-02-01T23:42:36.234Z,48.71
2023-02-01T23:45:39.102Z,48.79
2023-02-01T23:48:42.130Z,48.77
2023-02-01T23:51:47.576Z,48.62
2023-02-01T23:54:50.430Z,48.74
2023-02-01T23:57:53.258Z,48.71
